sensor_id;sensor_type;location;lat;lon;timestamp;P1;durP1;ratioP1;P2;durP2;ratioP2
55706;SDS011;41608;45.384;20.394;2023-03-23T00:00:29;60.45;;;39.65;;
55706;SDS011;41608;45.384;20.394;2023-03-23T00:02:56;60.75;;;39.85;;
55706;SDS011;41608;45.384;20.394;2023-03-23T00:05:22;58.30;;;39.30;;
55706;SDS011;41608;45.384;20.394;2023-03-23T00:07:48;56.08;;;38.47;;
55706;SDS011;41608;45.384;20.394;2023-03-23T00:10:17;60.60;;;41.05;;
55706;SDS011;41608;45.384;20.394;2023-03-23T00:12:43;68.65;;;46.10;;
55706;SDS011;41608;45.384;20.394;2023-03-23T00:15:10;77.07;;;46.67;;
55706;SDS011;41608;45.384;20.394;2023-03-23T00:17:38;57.97;;;40.53;;
55706;SDS011;41608;45.384;20.394;2023-03-23T00:20:04;71.53;;;42.60;;
55706;SDS011;41608;45.384;20.394;2023-03-23T00:22:31;63.50;;;43.03;;
55706;SDS011;41608;45.384;20.394;2023-03-23T00:25:02;63.10;;;40.08;;
55706;SDS011;41608;45.384;20.394;2023-03-23T00:27:28;61.08;;;40.22;;
55706;SDS011;41608;45.384;20.394;2023-03-23T00:29:54;71.47;;;44.38;;
55706;SDS011;41608;45.384;20.394;2023-03-23T00:32:22;64.57;;;43.80;;
55706;SDS011;41608;45.384;20.394;2023-03-23T00:34:52;64.13;;;45.85;;
55706;SDS011;41608;45.384;20.394;2023-03-23T00:37:21;70.82;;;47.55;;
55706;SDS011;41608;45.384;20.394;2023-03-23T00:39:47;68.90;;;46.30;;
55706;SDS011;41608;45.384;20.394;2023-03-23T00:42:14;65.05;;;44.70;;
55706;SDS011;41608;45.384;20.394;2023-03-23T00:44:41;85.38;;;55.72;;
55706;SDS011;41608;45.384;20.394;2023-03-23T00:47:08;83.13;;;52.78;;
55706;SDS011;41608;45.384;20.394;2023-03-23T00:49:35;87.80;;;60.08;;
55706;SDS011;41608;45.384;20.394;2023-03-23T00:52:01;87.78;;;58.38;;
55706;SDS011;41608;45.384;20.394;2023-03-23T00:54:28;87.95;;;57.28;;
55706;SDS011;41608;45.384;20.394;2023-03-23T00:56:54;93.05;;;60.45;;
55706;SDS011;41608;45.384;20.394;2023-03-23T00:59:20;92.57;;;65.57;;
55706;SDS011;41608;45.384;20.394;2023-03-23T01:01:47;100.00;;;63.15;;
55706;SDS011;41608;45.384;20.394;2023-03-23T01:04:13;99.85;;;61.97;;
55706;SDS011;41608;45.384;20.394;2023-03-23T01:06:40;100.20;;;63.40;;
55706;SDS011;41608;45.384;20.394;2023-03-23T01:09:08;102.07;;;62.83;;
55706;SDS011;41608;45.384;20.394;2023-03-23T01:11:35;99.13;;;61.78;;
55706;SDS011;41608;45.384;20.394;2023-03-23T01:14:04;94.57;;;58.63;;
55706;SDS011;41608;45.384;20.394;2023-03-23T01:16:30;70.93;;;45.20;;
55706;SDS011;41608;45.384;20.394;2023-03-23T01:18:56;61.58;;;40.65;;
55706;SDS011;41608;45.384;20.394;2023-03-23T01:21:22;70.10;;;44.05;;
55706;SDS011;41608;45.384;20.394;2023-03-23T01:23:51;65.13;;;40.45;;
55706;SDS011;41608;45.384;20.394;2023-03-23T01:26:21;54.60;;;35.72;;
55706;SDS011;41608;45.384;20.394;2023-03-23T01:28:50;52.75;;;37.40;;
55706;SDS011;41608;45.384;20.394;2023-03-23T01:31:17;58.97;;;38.15;;
55706;SDS011;41608;45.384;20.394;2023-03-23T01:33:43;64.18;;;42.22;;
55706;SDS011;41608;45.384;20.394;2023-03-23T01:36:11;63.22;;;43.70;;
55706;SDS011;41608;45.384;20.394;2023-03-23T01:38:37;64.10;;;39.05;;
55706;SDS011;41608;45.384;20.394;2023-03-23T01:41:04;59.15;;;40.03;;
55706;SDS011;41608;45.384;20.394;2023-03-23T01:43:30;56.92;;;38.97;;
55706;SDS011;41608;45.384;20.394;2023-03-23T01:45:56;56.17;;;37.78;;
55706;SDS011;41608;45.384;20.394;2023-03-23T01:48:38;57.83;;;37.50;;
55706;SDS011;41608;45.384;20.394;2023-03-23T01:51:06;56.40;;;35.83;;
55706;SDS011;41608;45.384;20.394;2023-03-23T01:53:38;52.22;;;34.17;;
55706;SDS011;41608;45.384;20.394;2023-03-23T01:56:08;54.15;;;35.75;;
55706;SDS011;41608;45.384;20.394;2023-03-23T01:58:36;56.63;;;35.38;;
55706;SDS011;41608;45.384;20.394;2023-03-23T02:01:04;46.35;;;32.35;;
55706;SDS011;41608;45.384;20.394;2023-03-23T02:03:36;47.92;;;31.75;;
55706;SDS011;41608;45.384;20.394;2023-03-23T02:06:03;53.90;;;35.58;;
55706;SDS011;41608;45.384;20.394;2023-03-23T02:08:29;55.13;;;35.33;;
55706;SDS011;41608;45.384;20.394;2023-03-23T02:10:57;49.80;;;34.80;;
55706;SDS011;41608;45.384;20.394;2023-03-23T02:13:23;51.42;;;35.72;;
55706;SDS011;41608;45.384;20.394;2023-03-23T02:18:37;60.85;;;35.72;;
55706;SDS011;41608;45.384;20.394;2023-03-23T02:26:48;62.22;;;37.75;;
55706;SDS011;41608;45.384;20.394;2023-03-23T02:34:17;56.40;;;36.88;;
55706;SDS011;41608;45.384;20.394;2023-03-23T02:36:46;67.78;;;36.38;;
55706;SDS011;41608;45.384;20.394;2023-03-23T02:41:44;59.33;;;38.58;;
55706;SDS011;41608;45.384;20.394;2023-03-23T02:44:10;60.35;;;36.17;;
55706;SDS011;41608;45.384;20.394;2023-03-23T02:46:38;56.05;;;34.92;;
55706;SDS011;41608;45.384;20.394;2023-03-23T02:49:05;43.33;;;29.45;;
55706;SDS011;41608;45.384;20.394;2023-03-23T02:51:37;45.15;;;31.35;;
55706;SDS011;41608;45.384;20.394;2023-03-23T02:54:04;43.63;;;30.35;;
55706;SDS011;41608;45.384;20.394;2023-03-23T02:56:31;46.38;;;31.00;;
55706;SDS011;41608;45.384;20.394;2023-03-23T02:58:58;47.83;;;31.17;;
55706;SDS011;41608;45.384;20.394;2023-03-23T03:04:11;49.75;;;33.42;;
55706;SDS011;41608;45.384;20.394;2023-03-23T03:09:15;50.25;;;33.83;;
55706;SDS011;41608;45.384;20.394;2023-03-23T03:11:50;52.38;;;34.25;;
55706;SDS011;41608;45.384;20.394;2023-03-23T03:14:28;58.58;;;34.60;;
55706;SDS011;41608;45.384;20.394;2023-03-23T03:17:17;51.85;;;33.25;;
55706;SDS011;41608;45.384;20.394;2023-03-23T03:19:42;52.08;;;33.65;;
55706;SDS011;41608;45.384;20.394;2023-03-23T03:22:11;49.03;;;33.28;;
55706;SDS011;41608;45.384;20.394;2023-03-23T03:24:37;46.95;;;34.10;;
55706;SDS011;41608;45.384;20.394;2023-03-23T03:27:05;42.97;;;30.42;;
55706;SDS011;41608;45.384;20.394;2023-03-23T03:29:37;44.45;;;30.58;;
55706;SDS011;41608;45.384;20.394;2023-03-23T03:32:10;46.10;;;31.85;;
55706;SDS011;41608;45.384;20.394;2023-03-23T03:34:37;43.45;;;30.48;;
55706;SDS011;41608;45.384;20.394;2023-03-23T03:37:06;54.15;;;34.53;;
55706;SDS011;41608;45.384;20.394;2023-03-23T03:39:35;39.70;;;30.45;;
55706;SDS011;41608;45.384;20.394;2023-03-23T03:42:02;43.88;;;32.08;;
55706;SDS011;41608;45.384;20.394;2023-03-23T03:44:28;46.38;;;33.92;;
55706;SDS011;41608;45.384;20.394;2023-03-23T03:46:54;51.85;;;35.03;;
55706;SDS011;41608;45.384;20.394;2023-03-23T03:49:20;50.55;;;33.83;;
55706;SDS011;41608;45.384;20.394;2023-03-23T03:51:47;54.65;;;36.08;;
55706;SDS011;41608;45.384;20.394;2023-03-23T03:54:13;51.72;;;35.08;;
55706;SDS011;41608;45.384;20.394;2023-03-23T03:56:40;47.88;;;32.97;;
55706;SDS011;41608;45.384;20.394;2023-03-23T03:59:09;52.47;;;36.55;;
55706;SDS011;41608;45.384;20.394;2023-03-23T04:01:37;45.58;;;33.70;;
55706;SDS011;41608;45.384;20.394;2023-03-23T04:04:03;49.90;;;36.10;;
55706;SDS011;41608;45.384;20.394;2023-03-23T04:06:32;51.50;;;34.47;;
55706;SDS011;41608;45.384;20.394;2023-03-23T04:08:58;49.38;;;35.63;;
55706;SDS011;41608;45.384;20.394;2023-03-23T04:11:31;49.78;;;35.92;;
55706;SDS011;41608;45.384;20.394;2023-03-23T04:13:57;68.07;;;40.03;;
55706;SDS011;41608;45.384;20.394;2023-03-23T04:16:23;83.15;;;46.10;;
55706;SDS011;41608;45.384;20.394;2023-03-23T04:18:51;64.03;;;43.83;;
55706;SDS011;41608;45.384;20.394;2023-03-23T04:21:21;64.75;;;42.10;;
55706;SDS011;41608;45.384;20.394;2023-03-23T04:23:47;57.95;;;36.97;;
55706;SDS011;41608;45.384;20.394;2023-03-23T04:26:13;61.22;;;40.78;;
55706;SDS011;41608;45.384;20.394;2023-03-23T04:28:39;50.80;;;36.08;;
55706;SDS011;41608;45.384;20.394;2023-03-23T04:31:06;54.92;;;34.17;;
55706;SDS011;41608;45.384;20.394;2023-03-23T04:33:33;50.20;;;35.15;;
55706;SDS011;41608;45.384;20.394;2023-03-23T04:36:02;52.15;;;35.70;;
55706;SDS011;41608;45.384;20.394;2023-03-23T04:38:28;59.70;;;36.97;;
55706;SDS011;41608;45.384;20.394;2023-03-23T04:40:57;58.88;;;37.97;;
55706;SDS011;41608;45.384;20.394;2023-03-23T04:43:25;42.88;;;33.17;;
55706;SDS011;41608;45.384;20.394;2023-03-23T04:45:52;49.55;;;34.15;;
55706;SDS011;41608;45.384;20.394;2023-03-23T04:48:22;48.70;;;35.20;;
55706;SDS011;41608;45.384;20.394;2023-03-23T04:50:48;54.78;;;36.20;;
55706;SDS011;41608;45.384;20.394;2023-03-23T04:53:15;49.63;;;36.50;;
55706;SDS011;41608;45.384;20.394;2023-03-23T04:55:43;47.70;;;35.15;;
55706;SDS011;41608;45.384;20.394;2023-03-23T04:58:12;55.60;;;37.30;;
55706;SDS011;41608;45.384;20.394;2023-03-23T05:00:39;52.97;;;35.63;;
55706;SDS011;41608;45.384;20.394;2023-03-23T05:03:05;55.38;;;36.05;;
55706;SDS011;41608;45.384;20.394;2023-03-23T05:05:34;48.90;;;35.00;;
55706;SDS011;41608;45.384;20.394;2023-03-23T05:08:00;58.10;;;36.65;;
55706;SDS011;41608;45.384;20.394;2023-03-23T05:10:27;55.45;;;33.25;;
55706;SDS011;41608;45.384;20.394;2023-03-23T05:12:53;48.65;;;34.30;;
55706;SDS011;41608;45.384;20.394;2023-03-23T05:15:19;48.05;;;35.92;;
55706;SDS011;41608;45.384;20.394;2023-03-23T05:17:45;55.50;;;34.35;;
55706;SDS011;41608;45.384;20.394;2023-03-23T05:20:14;48.70;;;34.38;;
55706;SDS011;41608;45.384;20.394;2023-03-23T05:22:43;60.15;;;36.15;;
55706;SDS011;41608;45.384;20.394;2023-03-23T05:25:09;49.28;;;34.97;;
55706;SDS011;41608;45.384;20.394;2023-03-23T05:27:36;55.35;;;35.80;;
55706;SDS011;41608;45.384;20.394;2023-03-23T05:30:08;55.78;;;36.53;;
55706;SDS011;41608;45.384;20.394;2023-03-23T05:32:35;50.22;;;35.47;;
55706;SDS011;41608;45.384;20.394;2023-03-23T05:35:02;54.50;;;37.05;;
55706;SDS011;41608;45.384;20.394;2023-03-23T05:37:28;69.50;;;40.55;;
55706;SDS011;41608;45.384;20.394;2023-03-23T05:39:57;57.35;;;37.85;;
55706;SDS011;41608;45.384;20.394;2023-03-23T05:42:26;72.60;;;41.70;;
55706;SDS011;41608;45.384;20.394;2023-03-23T05:44:52;60.00;;;39.75;;
55706;SDS011;41608;45.384;20.394;2023-03-23T05:47:18;58.65;;;39.08;;
55706;SDS011;41608;45.384;20.394;2023-03-23T05:49:44;70.85;;;38.88;;
55706;SDS011;41608;45.384;20.394;2023-03-23T05:52:11;53.90;;;35.83;;
55706;SDS011;41608;45.384;20.394;2023-03-23T05:54:39;60.42;;;37.65;;
55706;SDS011;41608;45.384;20.394;2023-03-23T05:57:06;50.63;;;33.78;;
55706;SDS011;41608;45.384;20.394;2023-03-23T05:59:33;64.45;;;35.92;;
55706;SDS011;41608;45.384;20.394;2023-03-23T06:01:59;51.90;;;33.70;;
55706;SDS011;41608;45.384;20.394;2023-03-23T06:04:26;52.78;;;34.30;;
55706;SDS011;41608;45.384;20.394;2023-03-23T06:06:52;60.33;;;32.08;;
55706;SDS011;41608;45.384;20.394;2023-03-23T06:09:18;52.22;;;33.83;;
55706;SDS011;41608;45.384;20.394;2023-03-23T06:11:50;51.22;;;33.15;;
55706;SDS011;41608;45.384;20.394;2023-03-23T06:14:16;50.53;;;33.95;;
55706;SDS011;41608;45.384;20.394;2023-03-23T06:16:43;51.80;;;32.70;;
55706;SDS011;41608;45.384;20.394;2023-03-23T06:19:09;61.40;;;34.20;;
55706;SDS011;41608;45.384;20.394;2023-03-23T06:21:36;58.28;;;33.58;;
55706;SDS011;41608;45.384;20.394;2023-03-23T06:24:02;50.70;;;32.40;;
55706;SDS011;41608;45.384;20.394;2023-03-23T06:26:38;44.20;;;31.88;;
55706;SDS011;41608;45.384;20.394;2023-03-23T06:29:06;56.88;;;33.80;;
55706;SDS011;41608;45.384;20.394;2023-03-23T06:31:36;49.97;;;30.48;;
55706;SDS011;41608;45.384;20.394;2023-03-23T06:34:03;52.08;;;32.10;;
55706;SDS011;41608;45.384;20.394;2023-03-23T06:36:29;53.17;;;32.42;;
55706;SDS011;41608;45.384;20.394;2023-03-23T06:38:56;56.75;;;33.78;;
55706;SDS011;41608;45.384;20.394;2023-03-23T06:41:24;59.08;;;34.53;;
55706;SDS011;41608;45.384;20.394;2023-03-23T06:43:50;51.55;;;33.17;;
55706;SDS011;41608;45.384;20.394;2023-03-23T06:46:16;53.78;;;34.30;;
55706;SDS011;41608;45.384;20.394;2023-03-23T06:48:42;54.15;;;32.55;;
55706;SDS011;41608;45.384;20.394;2023-03-23T06:51:09;54.53;;;35.20;;
55706;SDS011;41608;45.384;20.394;2023-03-23T06:53:35;56.58;;;32.60;;
55706;SDS011;41608;45.384;20.394;2023-03-23T06:56:01;43.13;;;32.17;;
55706;SDS011;41608;45.384;20.394;2023-03-23T06:58:27;48.83;;;33.03;;
55706;SDS011;41608;45.384;20.394;2023-03-23T07:00:54;93.90;;;37.20;;
55706;SDS011;41608;45.384;20.394;2023-03-23T07:03:23;51.33;;;32.42;;
55706;SDS011;41608;45.384;20.394;2023-03-23T07:05:50;46.72;;;27.13;;
55706;SDS011;41608;45.384;20.394;2023-03-23T07:08:16;32.30;;;25.60;;
55706;SDS011;41608;45.384;20.394;2023-03-23T07:10:45;44.15;;;28.33;;
55706;SDS011;41608;45.384;20.394;2023-03-23T07:13:11;38.60;;;24.90;;
55706;SDS011;41608;45.384;20.394;2023-03-23T07:15:38;34.92;;;25.80;;
55706;SDS011;41608;45.384;20.394;2023-03-23T07:18:04;39.80;;;25.17;;
55706;SDS011;41608;45.384;20.394;2023-03-23T07:20:30;39.60;;;24.63;;
55706;SDS011;41608;45.384;20.394;2023-03-23T07:22:57;32.67;;;24.20;;
55706;SDS011;41608;45.384;20.394;2023-03-23T07:25:23;35.75;;;22.65;;
55706;SDS011;41608;45.384;20.394;2023-03-23T07:27:49;39.47;;;26.92;;
55706;SDS011;41608;45.384;20.394;2023-03-23T07:30:15;38.85;;;24.20;;
55706;SDS011;41608;45.384;20.394;2023-03-23T07:32:41;30.63;;;22.23;;
55706;SDS011;41608;45.384;20.394;2023-03-23T07:35:08;40.42;;;22.95;;
55706;SDS011;41608;45.384;20.394;2023-03-23T07:37:34;31.90;;;22.02;;
55706;SDS011;41608;45.384;20.394;2023-03-23T07:40:01;34.92;;;23.55;;
55706;SDS011;41608;45.384;20.394;2023-03-23T07:42:40;35.08;;;23.77;;
55706;SDS011;41608;45.384;20.394;2023-03-23T07:45:07;25.13;;;21.20;;
55706;SDS011;41608;45.384;20.394;2023-03-23T07:47:33;30.85;;;22.35;;
55706;SDS011;41608;45.384;20.394;2023-03-23T07:49:59;26.35;;;21.08;;
55706;SDS011;41608;45.384;20.394;2023-03-23T07:52:26;34.15;;;23.27;;
55706;SDS011;41608;45.384;20.394;2023-03-23T07:54:52;31.77;;;21.52;;
55706;SDS011;41608;45.384;20.394;2023-03-23T07:57:18;37.33;;;22.17;;
55706;SDS011;41608;45.384;20.394;2023-03-23T07:59:44;27.00;;;20.23;;
55706;SDS011;41608;45.384;20.394;2023-03-23T08:02:11;34.10;;;22.65;;
55706;SDS011;41608;45.384;20.394;2023-03-23T08:04:37;34.33;;;22.75;;
55706;SDS011;41608;45.384;20.394;2023-03-23T08:07:03;29.90;;;21.05;;
55706;SDS011;41608;45.384;20.394;2023-03-23T08:09:30;43.13;;;23.50;;
55706;SDS011;41608;45.384;20.394;2023-03-23T08:11:56;31.80;;;21.48;;
55706;SDS011;41608;45.384;20.394;2023-03-23T08:14:22;34.40;;;20.38;;
55706;SDS011;41608;45.384;20.394;2023-03-23T08:16:51;26.10;;;19.05;;
55706;SDS011;41608;45.384;20.394;2023-03-23T08:19:17;32.85;;;20.23;;
55706;SDS011;41608;45.384;20.394;2023-03-23T08:21:44;40.22;;;21.63;;
55706;SDS011;41608;45.384;20.394;2023-03-23T08:24:10;27.08;;;19.90;;
55706;SDS011;41608;45.384;20.394;2023-03-23T08:26:36;29.58;;;18.73;;
55706;SDS011;41608;45.384;20.394;2023-03-23T08:29:03;27.17;;;19.23;;
55706;SDS011;41608;45.384;20.394;2023-03-23T08:31:29;27.48;;;19.60;;
55706;SDS011;41608;45.384;20.394;2023-03-23T08:33:55;26.45;;;18.67;;
55706;SDS011;41608;45.384;20.394;2023-03-23T08:36:22;26.55;;;19.83;;
55706;SDS011;41608;45.384;20.394;2023-03-23T08:38:48;25.00;;;17.42;;
55706;SDS011;41608;45.384;20.394;2023-03-23T08:41:16;28.60;;;18.98;;
55706;SDS011;41608;45.384;20.394;2023-03-23T08:43:42;26.35;;;21.10;;
55706;SDS011;41608;45.384;20.394;2023-03-23T08:46:09;24.40;;;17.38;;
55706;SDS011;41608;45.384;20.394;2023-03-23T08:48:36;25.92;;;17.05;;
55706;SDS011;41608;45.384;20.394;2023-03-23T08:51:04;27.45;;;16.45;;
55706;SDS011;41608;45.384;20.394;2023-03-23T08:53:30;23.48;;;18.10;;
55706;SDS011;41608;45.384;20.394;2023-03-23T08:56:02;30.30;;;16.80;;
55706;SDS011;41608;45.384;20.394;2023-03-23T08:58:29;22.48;;;15.88;;
55706;SDS011;41608;45.384;20.394;2023-03-23T09:00:55;22.48;;;16.10;;
55706;SDS011;41608;45.384;20.394;2023-03-23T09:03:21;22.27;;;17.50;;
55706;SDS011;41608;45.384;20.394;2023-03-23T09:05:47;24.80;;;17.05;;
55706;SDS011;41608;45.384;20.394;2023-03-23T09:08:13;22.27;;;16.42;;
55706;SDS011;41608;45.384;20.394;2023-03-23T09:10:40;19.02;;;14.00;;
55706;SDS011;41608;45.384;20.394;2023-03-23T09:13:06;18.70;;;13.95;;
55706;SDS011;41608;45.384;20.394;2023-03-23T09:15:32;22.45;;;13.40;;
55706;SDS011;41608;45.384;20.394;2023-03-23T09:17:58;20.23;;;13.75;;
55706;SDS011;41608;45.384;20.394;2023-03-23T09:20:26;20.67;;;13.98;;
55706;SDS011;41608;45.384;20.394;2023-03-23T09:22:54;16.65;;;12.02;;
55706;SDS011;41608;45.384;20.394;2023-03-23T09:25:21;25.33;;;13.60;;
55706;SDS011;41608;45.384;20.394;2023-03-23T09:27:48;17.73;;;13.30;;
55706;SDS011;41608;45.384;20.394;2023-03-23T09:30:19;24.02;;;14.77;;
55706;SDS011;41608;45.384;20.394;2023-03-23T09:32:45;17.10;;;12.30;;
55706;SDS011;41608;45.384;20.394;2023-03-23T09:35:13;18.95;;;11.75;;
55706;SDS011;41608;45.384;20.394;2023-03-23T09:37:41;12.48;;;10.57;;
55706;SDS011;41608;45.384;20.394;2023-03-23T09:40:13;17.00;;;11.68;;
55706;SDS011;41608;45.384;20.394;2023-03-23T09:45:24;17.38;;;10.68;;
55706;SDS011;41608;45.384;20.394;2023-03-23T09:50:19;18.35;;;10.05;;
55706;SDS011;41608;45.384;20.394;2023-03-23T09:52:55;22.02;;;10.82;;
55706;SDS011;41608;45.384;20.394;2023-03-23T09:55:22;13.57;;;9.45;;
55706;SDS011;41608;45.384;20.394;2023-03-23T10:03:05;16.08;;;8.60;;
55706;SDS011;41608;45.384;20.394;2023-03-23T10:05:36;15.65;;;8.43;;
55706;SDS011;41608;45.384;20.394;2023-03-23T10:08:10;13.20;;;9.48;;
55706;SDS011;41608;45.384;20.394;2023-03-23T10:10:45;15.13;;;9.13;;
55706;SDS011;41608;45.384;20.394;2023-03-23T10:15:43;9.27;;;8.27;;
55706;SDS011;41608;45.384;20.394;2023-03-23T10:18:29;13.45;;;7.63;;
55706;SDS011;41608;45.384;20.394;2023-03-23T10:20:57;13.07;;;8.63;;
55706;SDS011;41608;45.384;20.394;2023-03-23T10:26:06;12.70;;;9.10;;
55706;SDS011;41608;45.384;20.394;2023-03-23T10:28:37;19.92;;;8.93;;
55706;SDS011;41608;45.384;20.394;2023-03-23T10:31:04;9.40;;;7.72;;
55706;SDS011;41608;45.384;20.394;2023-03-23T10:36:31;11.18;;;7.53;;
55706;SDS011;41608;45.384;20.394;2023-03-23T10:39:01;12.30;;;7.88;;
55706;SDS011;41608;45.384;20.394;2023-03-23T10:41:28;9.35;;;7.07;;
55706;SDS011;41608;45.384;20.394;2023-03-23T10:43:55;12.68;;;7.78;;
55706;SDS011;41608;45.384;20.394;2023-03-23T10:46:25;11.00;;;7.90;;
55706;SDS011;41608;45.384;20.394;2023-03-23T10:48:53;9.50;;;6.60;;
55706;SDS011;41608;45.384;20.394;2023-03-23T10:51:22;10.10;;;6.75;;
55706;SDS011;41608;45.384;20.394;2023-03-23T10:53:50;20.45;;;8.02;;
55706;SDS011;41608;45.384;20.394;2023-03-23T10:58:47;22.85;;;8.80;;
55706;SDS011;41608;45.384;20.394;2023-03-23T11:01:13;10.68;;;6.88;;
55706;SDS011;41608;45.384;20.394;2023-03-23T11:03:44;15.20;;;8.95;;
55706;SDS011;41608;45.384;20.394;2023-03-23T11:06:34;25.02;;;9.23;;
55706;SDS011;41608;45.384;20.394;2023-03-23T11:09:11;68.97;;;14.40;;
55706;SDS011;41608;45.384;20.394;2023-03-23T11:11:39;13.23;;;7.82;;
55706;SDS011;41608;45.384;20.394;2023-03-23T11:14:18;10.88;;;7.28;;
55706;SDS011;41608;45.384;20.394;2023-03-23T11:16:49;9.98;;;5.80;;
55706;SDS011;41608;45.384;20.394;2023-03-23T11:19:20;13.32;;;6.82;;
55706;SDS011;41608;45.384;20.394;2023-03-23T11:21:49;11.00;;;5.88;;
55706;SDS011;41608;45.384;20.394;2023-03-23T11:24:16;11.93;;;6.32;;
55706;SDS011;41608;45.384;20.394;2023-03-23T11:26:43;7.22;;;5.78;;
55706;SDS011;41608;45.384;20.394;2023-03-23T11:31:38;9.95;;;6.22;;
55706;SDS011;41608;45.384;20.394;2023-03-23T11:36:57;11.48;;;6.18;;
55706;SDS011;41608;45.384;20.394;2023-03-23T11:39:28;12.15;;;6.03;;
55706;SDS011;41608;45.384;20.394;2023-03-23T11:41:57;8.25;;;5.72;;
55706;SDS011;41608;45.384;20.394;2023-03-23T11:44:23;7.95;;;6.28;;
55706;SDS011;41608;45.384;20.394;2023-03-23T11:50:08;8.25;;;5.60;;
55706;SDS011;41608;45.384;20.394;2023-03-23T11:55:15;10.95;;;7.13;;
55706;SDS011;41608;45.384;20.394;2023-03-23T11:57:42;11.05;;;7.32;;
55706;SDS011;41608;45.384;20.394;2023-03-23T12:00:15;6.82;;;5.53;;
55706;SDS011;41608;45.384;20.394;2023-03-23T12:02:56;8.07;;;5.30;;
55706;SDS011;41608;45.384;20.394;2023-03-23T12:07:56;19.92;;;7.80;;
55706;SDS011;41608;45.384;20.394;2023-03-23T12:23:27;13.20;;;8.85;;
55706;SDS011;41608;45.384;20.394;2023-03-23T12:26:01;8.35;;;6.70;;
55706;SDS011;41608;45.384;20.394;2023-03-23T12:31:25;13.10;;;7.10;;
55706;SDS011;41608;45.384;20.394;2023-03-23T12:33:57;10.95;;;5.97;;
55706;SDS011;41608;45.384;20.394;2023-03-23T12:36:38;6.97;;;6.03;;
55706;SDS011;41608;45.384;20.394;2023-03-23T12:39:29;8.93;;;6.45;;
55706;SDS011;41608;45.384;20.394;2023-03-23T12:44:47;9.43;;;6.63;;
55706;SDS011;41608;45.384;20.394;2023-03-23T12:50:03;11.73;;;6.03;;
55706;SDS011;41608;45.384;20.394;2023-03-23T12:52:32;9.90;;;5.38;;
55706;SDS011;41608;45.384;20.394;2023-03-23T12:55:05;6.88;;;5.13;;
55706;SDS011;41608;45.384;20.394;2023-03-23T13:02:39;10.75;;;5.82;;
55706;SDS011;41608;45.384;20.394;2023-03-23T13:05:14;8.75;;;6.07;;
55706;SDS011;41608;45.384;20.394;2023-03-23T13:08:02;11.00;;;6.82;;
55706;SDS011;41608;45.384;20.394;2023-03-23T13:12:53;17.42;;;5.90;;
55706;SDS011;41608;45.384;20.394;2023-03-23T13:25:19;5.78;;;4.63;;
55706;SDS011;41608;45.384;20.394;2023-03-23T13:27:58;7.55;;;5.20;;
55706;SDS011;41608;45.384;20.394;2023-03-23T13:30:26;11.63;;;5.68;;
55706;SDS011;41608;45.384;20.394;2023-03-23T13:33:00;11.63;;;6.30;;
55706;SDS011;41608;45.384;20.394;2023-03-23T13:35:28;8.93;;;5.65;;
55706;SDS011;41608;45.384;20.394;2023-03-23T13:37:59;6.00;;;4.85;;
55706;SDS011;41608;45.384;20.394;2023-03-23T13:40:26;7.18;;;5.25;;
55706;SDS011;41608;45.384;20.394;2023-03-23T13:42:54;7.85;;;5.32;;
55706;SDS011;41608;45.384;20.394;2023-03-23T13:45:36;11.40;;;6.45;;
55706;SDS011;41608;45.384;20.394;2023-03-23T13:48:04;6.05;;;4.65;;
55706;SDS011;41608;45.384;20.394;2023-03-23T13:50:31;10.55;;;5.65;;
55706;SDS011;41608;45.384;20.394;2023-03-23T13:53:00;21.10;;;7.00;;
55706;SDS011;41608;45.384;20.394;2023-03-23T13:55:42;8.25;;;5.47;;
55706;SDS011;41608;45.384;20.394;2023-03-23T14:00:45;13.25;;;5.30;;
55706;SDS011;41608;45.384;20.394;2023-03-23T14:03:17;10.82;;;5.88;;
55706;SDS011;41608;45.384;20.394;2023-03-23T14:05:45;8.77;;;4.78;;
55706;SDS011;41608;45.384;20.394;2023-03-23T14:13:06;6.82;;;5.05;;
55706;SDS011;41608;45.384;20.394;2023-03-23T14:15:43;8.65;;;6.18;;
55706;SDS011;41608;45.384;20.394;2023-03-23T14:18:13;12.25;;;7.45;;
55706;SDS011;41608;45.384;20.394;2023-03-23T14:20:40;10.13;;;6.13;;
55706;SDS011;41608;45.384;20.394;2023-03-23T14:23:12;16.52;;;11.85;;
55706;SDS011;41608;45.384;20.394;2023-03-23T14:25:40;15.48;;;9.20;;
55706;SDS011;41608;45.384;20.394;2023-03-23T14:28:16;9.20;;;5.63;;
55706;SDS011;41608;45.384;20.394;2023-03-23T14:30:42;77.97;;;44.80;;
55706;SDS011;41608;45.384;20.394;2023-03-23T14:33:09;25.85;;;20.48;;
55706;SDS011;41608;45.384;20.394;2023-03-23T14:35:37;18.92;;;12.05;;
55706;SDS011;41608;45.384;20.394;2023-03-23T14:38:05;15.65;;;7.43;;
55706;SDS011;41608;45.384;20.394;2023-03-23T14:40:36;7.90;;;5.35;;
55706;SDS011;41608;45.384;20.394;2023-03-23T14:43:02;7.93;;;5.68;;
55706;SDS011;41608;45.384;20.394;2023-03-23T14:45:30;11.98;;;6.45;;
55706;SDS011;41608;45.384;20.394;2023-03-23T14:47:58;8.98;;;5.80;;
55706;SDS011;41608;45.384;20.394;2023-03-23T14:50:37;7.75;;;5.78;;
55706;SDS011;41608;45.384;20.394;2023-03-23T14:53:38;8.55;;;5.22;;
55706;SDS011;41608;45.384;20.394;2023-03-23T14:55:59;9.85;;;5.75;;
55706;SDS011;41608;45.384;20.394;2023-03-23T14:58:25;10.30;;;6.15;;
55706;SDS011;41608;45.384;20.394;2023-03-23T15:00:53;10.38;;;8.02;;
55706;SDS011;41608;45.384;20.394;2023-03-23T15:03:21;11.27;;;7.57;;
55706;SDS011;41608;45.384;20.394;2023-03-23T15:05:57;12.82;;;6.40;;
55706;SDS011;41608;45.384;20.394;2023-03-23T15:11:02;13.77;;;7.22;;
55706;SDS011;41608;45.384;20.394;2023-03-23T15:13:29;10.10;;;6.32;;
55706;SDS011;41608;45.384;20.394;2023-03-23T15:16:17;10.63;;;7.00;;
55706;SDS011;41608;45.384;20.394;2023-03-23T15:18:48;13.50;;;7.05;;
55706;SDS011;41608;45.384;20.394;2023-03-23T15:21:32;9.43;;;7.07;;
55706;SDS011;41608;45.384;20.394;2023-03-23T15:24:17;14.48;;;6.53;;
55706;SDS011;41608;45.384;20.394;2023-03-23T15:26:44;14.38;;;7.55;;
55706;SDS011;41608;45.384;20.394;2023-03-23T15:29:12;13.77;;;8.35;;
55706;SDS011;41608;45.384;20.394;2023-03-23T15:31:57;13.40;;;6.78;;
55706;SDS011;41608;45.384;20.394;2023-03-23T15:34:31;8.90;;;5.53;;
55706;SDS011;41608;45.384;20.394;2023-03-23T15:36:59;14.10;;;7.35;;
55706;SDS011;41608;45.384;20.394;2023-03-23T15:39:25;8.90;;;6.10;;
55706;SDS011;41608;45.384;20.394;2023-03-23T15:41:52;15.75;;;7.78;;
55706;SDS011;41608;45.384;20.394;2023-03-23T15:44:21;14.73;;;11.00;;
55706;SDS011;41608;45.384;20.394;2023-03-23T15:46:48;20.58;;;12.45;;
55706;SDS011;41608;45.384;20.394;2023-03-23T15:49:15;17.55;;;11.63;;
55706;SDS011;41608;45.384;20.394;2023-03-23T15:51:41;12.07;;;8.98;;
55706;SDS011;41608;45.384;20.394;2023-03-23T15:54:09;16.58;;;7.30;;
55706;SDS011;41608;45.384;20.394;2023-03-23T15:56:38;21.65;;;9.50;;
55706;SDS011;41608;45.384;20.394;2023-03-23T15:59:04;16.58;;;6.97;;
55706;SDS011;41608;45.384;20.394;2023-03-23T16:01:30;16.20;;;6.80;;
55706;SDS011;41608;45.384;20.394;2023-03-23T16:04:00;13.50;;;7.45;;
55706;SDS011;41608;45.384;20.394;2023-03-23T16:06:27;18.38;;;12.00;;